Time;durP1;ratioP1;P1;durP2;ratioP2;P2;SDS_P1;SDS_P2;PMS_P1;PMS_P2;Temp;Humidity;BMP_temperature;BMP_pressure;BME280_temperature;BME280_humidity;BME280_pressure;Samples;Min_cycle;Max_cycle;Signal;HPM_P1;HPM_P2
2024/03/03 00:00:23;;;;;;;12.40;2.08;;;;;;;;;;5092936;28;20036;-37
2024/03/03 00:02:50;;;;;;;;;;;;;;;;;;5093733;28;20036;-42
2024/03/03 00:05:17;;;;;;;14.73;2.25;;;;;;;;;;5092218;28;19912;-36
2024/03/03 00:07:44;;;;;;;13.93;2.17;;;;;;;;;;5093050;28;20063;-40
2024/03/03 00:10:11;;;;;;;9.80;2.25;;;;;;;;;;5092931;28;20020;-37
2024/03/03 00:12:38;;;;;;;14.63;2.92;;;;;;;;;;5093367;28;20026;-39
2024/03/03 00:15:06;;;;;;;14.82;2.65;;;;;;;;;;5092442;28;20031;-40
2024/03/03 00:17:33;;;;;;;14.57;2.33;;;;;;;;;;5093289;28;20073;-40
2024/03/03 00:20:01;;;;;;;10.07;2.00;;;;;;;;;;5073671;28;20040;-41
2024/03/03 00:22:29;;;;;;;12.02;2.13;;;;;;;;;;5085404;28;20044;-38
2024/03/03 00:24:56;;;;;;;11.50;2.38;;;;;;;;;;5061127;28;20017;-42
2024/03/03 00:27:25;;;;;;;16.95;2.72;;;;;;;;;;5065960;28;20032;-38
2024/03/03 00:29:52;;;;;;;17.13;2.28;;;;;;;;;;5065096;28;20022;-37
2024/03/03 00:32:19;;;;;;;10.73;2.28;;;;;;;;;;5072530;28;20029;-37
2024/03/03 00:34:46;;;;;;;13.10;2.42;;;;;;;;;;5072286;28;20029;-39
2024/03/03 00:37:18;;;;;;;9.25;2.55;;;;;;;;;;5072228;28;20375;-42
2024/03/03 00:39:45;;;;;;;10.93;3.00;;;;;;;;;;5072034;28;20086;-43
2024/03/03 00:42:13;;;;;;;25.00;3.85;;;;;;;;;;5043918;28;20143;-42
2024/03/03 00:44:41;;;;;;;25.77;4.53;;;;;;;;;;5059664;28;20111;-38
2024/03/03 00:47:07;;;;;;;25.50;4.68;;;;;;;;;;5043341;28;20040;-40
2024/03/03 00:49:35;;;;;;;24.35;5.07;;;;;;;;;;5071213;28;20482;-41
2024/03/03 00:52:02;;;;;;;22.70;4.28;;;;;;;;;;5051486;28;20378;-41
2024/03/03 00:54:29;;;;;;;22.55;4.47;;;;;;;;;;5066988;28;20028;-39
2024/03/03 00:56:56;;;;;;;13.18;3.22;;;;;;;;;;5068056;28;20021;-44
2024/03/03 00:59:24;;;;;;;10.82;2.90;;;;;;;;;;5059998;28;20048;-43
2024/03/03 01:01:51;;;;;;;9.48;2.80;;;;;;;;;;5041032;28;20094;-41
2024/03/03 01:04:18;;;;;;;14.93;3.15;;;;;;;;;;5071364;28;20143;-44
2024/03/03 01:06:45;;;;;;;12.10;2.63;;;;;;;;;;5065227;28;20028;-41
2024/03/03 01:09:12;;;;;;;13.00;3.47;;;;;;;;;;5061298;28;20490;-43
2024/03/03 01:11:39;;;;;;;9.88;3.15;;;;;;;;;;5070013;28;20036;-39
2024/03/03 01:14:09;;;;;;;16.30;4.05;;;;;;;;;;5069463;28;20033;-42
2024/03/03 01:16:36;;;;;;;11.90;2.97;;;;;;;;;;5071946;28;20089;-43
2024/03/03 01:19:03;;;;;;;18.15;3.47;;;;;;;;;;5071586;28;20443;-40
2024/03/03 01:21:30;;;;;;;11.65;3.38;;;;;;;;;;5071678;28;20173;-40
2024/03/03 01:23:57;;;;;;;12.68;3.42;;;;;;;;;;5072305;28;20052;-41
2024/03/03 01:26:24;;;;;;;11.15;3.10;;;;;;;;;;5089569;28;20120;-44
2024/03/03 01:28:51;;;;;;;10.88;2.97;;;;;;;;;;5078304;28;20032;-43
2024/03/03 01:31:18;;;;;;;13.73;2.92;;;;;;;;;;5091758;28;20119;-37
2024/03/03 01:33:45;;;;;;;18.10;3.53;;;;;;;;;;5070813;28;20501;-40
2024/03/03 01:36:13;;;;;;;25.90;4.40;;;;;;;;;;5073266;28;20024;-40
2024/03/03 01:38:40;;;;;;;21.10;4.78;;;;;;;;;;5077521;28;20032;-38
2024/03/03 01:41:08;;;;;;;28.60;5.22;;;;;;;;;;5064645;28;20039;-38
2024/03/03 01:43:35;;;;;;;40.63;6.30;;;;;;;;;;5079467;28;20111;-37
2024/03/03 01:46:02;;;;;;;59.88;7.53;;;;;;;;;;5091335;28;20381;-44
2024/03/03 01:48:29;;;;;;;48.28;7.10;;;;;;;;;;5090117;28;20028;-44
2024/03/03 01:50:57;;;;;;;54.80;7.60;;;;;;;;;;5066866;28;20027;-38
2024/03/03 01:53:24;;;;;;;58.60;7.40;;;;;;;;;;5080952;28;20039;-39
2024/03/03 01:55:51;;;;;;;72.70;8.30;;;;;;;;;;5090786;28;20028;-40
2024/03/03 01:58:18;;;;;;;62.15;9.15;;;;;;;;;;5079882;28;20027;-39
2024/03/03 02:00:46;;;;;;;75.43;10.35;;;;;;;;;;5087987;28;20035;-37
2024/03/03 02:03:13;;;;;;;69.75;10.10;;;;;;;;;;5089508;28;20103;-40
2024/03/03 02:05:40;;;;;;;62.30;10.00;;;;;;;;;;5079019;28;20035;-38
2024/03/03 02:08:07;;;;;;;72.22;9.52;;;;;;;;;;5090580;28;20024;-42
2024/03/03 02:10:34;;;;;;;72.68;10.60;;;;;;;;;;5085296;28;20013;-35
2024/03/03 02:13:01;;;;;;;71.30;10.70;;;;;;;;;;5067799;28;20024;-37
2024/03/03 02:15:28;;;;;;;77.45;11.07;;;;;;;;;;5091082;28;20553;-40
2024/03/03 02:17:56;;;;;;;84.40;10.60;;;;;;;;;;5091262;28;20051;-42
2024/03/03 02:20:27;;;;;;;79.47;10.15;;;;;;;;;;5080666;28;20040;-38
2024/03/03 02:22:54;;;;;;;86.10;10.27;;;;;;;;;;5091163;28;20498;-35
2024/03/03 02:25:22;;;;;;;93.72;10.85;;;;;;;;;;5088630;28;20258;-40
2024/03/03 02:27:49;;;;;;;104.50;12.32;;;;;;;;;;5087672;28;20060;-40
2024/03/03 02:30:16;;;;;;;84.13;11.00;;;;;;;;;;5091378;28;20521;-39
2024/03/03 02:32:43;;;;;;;83.95;11.00;;;;;;;;;;5073149;28;20397;-37
2024/03/03 02:35:10;;;;;;;89.38;10.77;;;;;;;;;;5091298;28;20103;-36
2024/03/03 02:37:37;;;;;;;93.10;10.23;;;;;;;;;;5072521;28;20358;-39
2024/03/03 02:40:06;;;;;;;87.88;10.10;;;;;;;;;;5090995;28;20028;-36
2024/03/03 02:42:33;;;;;;;91.47;10.80;;;;;;;;;;5091140;28;20016;-39
2024/03/03 02:45:00;;;;;;;80.57;10.95;;;;;;;;;;5090696;28;20028;-39
2024/03/03 02:47:27;;;;;;;78.95;9.75;;;;;;;;;;5091086;28;20028;-42
2024/03/03 02:49:55;;;;;;;77.60;10.35;;;;;;;;;;5090891;28;20027;-40
2024/03/03 02:52:23;;;;;;;88.97;10.52;;;;;;;;;;5091189;28;20024;-37
2024/03/03 02:54:50;;;;;;;83.80;10.63;;;;;;;;;;5089761;28;20040;-35
2024/03/03 02:57:17;;;;;;;71.38;10.20;;;;;;;;;;5089443;28;20063;-41
2024/03/03 02:59:45;;;;;;;76.38;10.05;;;;;;;;;;5090460;28;20044;-40
2024/03/03 03:02:12;;;;;;;73.63;9.43;;;;;;;;;;5090455;28;20042;-41
2024/03/03 03:04:39;;;;;;;104.63;11.65;;;;;;;;;;5090467;28;20028;-41
2024/03/03 03:07:06;;;;;;;79.60;11.00;;;;;;;;;;5071618;28;20381;-39
2024/03/03 03:09:33;;;;;;;84.55;10.18;;;;;;;;;;5093821;28;20099;-42
2024/03/03 03:12:01;;;;;;;92.97;11.15;;;;;;;;;;5094082;28;20024;-38
2024/03/03 03:14:28;;;;;;;71.05;9.40;;;;;;;;;;5093898;28;20063;-42
2024/03/03 03:16:55;;;;;;;78.15;10.18;;;;;;;;;;5084696;28;20539;-39
2024/03/03 03:19:23;;;;;;;78.15;10.50;;;;;;;;;;5075493;28;20055;-39
2024/03/03 03:21:50;;;;;;;80.25;10.10;;;;;;;;;;5093580;28;20078;-39
2024/03/03 03:24:17;;;;;;;71.45;10.77;;;;;;;;;;5093834;28;20050;-38
2024/03/03 03:26:44;;;;;;;67.43;9.80;;;;;;;;;;5075511;28;20024;-40
2024/03/03 03:29:11;;;;;;;84.32;9.68;;;;;;;;;;5093697;28;20039;-39
2024/03/03 03:31:38;;;;;;;83.85;10.02;;;;;;;;;;5093646;28;20031;-42
2024/03/03 03:34:05;;;;;;;72.05;9.73;;;;;;;;;;5093625;28;20016;-38
2024/03/03 03:36:32;;;;;;;76.15;9.65;;;;;;;;;;5093542;28;20043;-41
2024/03/03 03:39:01;;;;;;;91.22;11.30;;;;;;;;;;5093547;28;20020;-42
2024/03/03 03:41:28;;;;;;;91.50;10.32;;;;;;;;;;5075199;28;20129;-40
2024/03/03 03:43:55;;;;;;;78.72;9.50;;;;;;;;;;5090791;28;20061;-41
2024/03/03 03:46:22;;;;;;;70.03;9.48;;;;;;;;;;5093245;28;20027;-38
2024/03/03 03:48:49;;;;;;;73.63;9.30;;;;;;;;;;5093461;28;20109;-39
2024/03/03 03:51:16;;;;;;;69.40;9.45;;;;;;;;;;5093303;28;20029;-40
2024/03/03 03:53:43;;;;;;;79.78;8.77;;;;;;;;;;5090865;28;20028;-40
2024/03/03 03:56:10;;;;;;;65.68;9.07;;;;;;;;;;5093357;28;20071;-38
2024/03/03 03:58:37;;;;;;;84.95;10.90;;;;;;;;;;5074550;28;20028;-40
2024/03/03 04:01:04;;;;;;;72.32;9.75;;;;;;;;;;5093178;28;20548;-43
2024/03/03 04:03:31;;;;;;;62.05;8.82;;;;;;;;;;5093240;28;20389;-36
2024/03/03 04:06:02;;;;;;;79.57;9.88;;;;;;;;;;5093899;28;20031;-35
2024/03/03 04:08:31;;;;;;;75.28;9.32;;;;;;;;;;5093788;28;20102;-35
2024/03/03 04:10:59;;;;;;;70.47;8.60;;;;;;;;;;5093437;28;20052;-38
2024/03/03 04:13:25;;;;;;;73.57;9.00;;;;;;;;;;5093503;28;20477;-36
2024/03/03 04:15:52;;;;;;;73.00;9.45;;;;;;;;;;5093646;28;20382;-37
2024/03/03 04:18:19;;;;;;;91.07;9.45;;;;;;;;;;5093590;28;20020;-41
2024/03/03 04:20:46;;;;;;;80.60;9.00;;;;;;;;;;5093400;28;20028;-37
2024/03/03 04:23:13;;;;;;;62.67;9.30;;;;;;;;;;5093129;28;20125;-39
2024/03/03 04:25:40;;;;;;;71.30;9.40;;;;;;;;;;5093386;28;20031;-38
2024/03/03 04:28:10;;;;;;;65.95;8.07;;;;;;;;;;5093522;28;20108;-34
2024/03/03 04:30:40;;;;;;;69.38;9.43;;;;;;;;;;5092798;28;20111;-38
2024/03/03 04:33:07;;;;;;;55.17;8.57;;;;;;;;;;5092823;28;20024;-38
2024/03/03 04:35:35;;;;;;;77.60;9.15;;;;;;;;;;5093367;28;20027;-37
2024/03/03 04:38:02;;;;;;;77.55;9.43;;;;;;;;;;5092877;28;20031;-37
2024/03/03 04:40:29;;;;;;;68.70;8.85;;;;;;;;;;5074992;28;20366;-36
2024/03/03 04:42:56;;;;;;;62.80;7.60;;;;;;;;;;5093028;28;20028;-38
2024/03/03 04:45:23;;;;;;;58.13;7.95;;;;;;;;;;5093088;28;20026;-42
2024/03/03 04:47:50;;;;;;;62.67;8.35;;;;;;;;;;5093123;28;20429;-36
2024/03/03 04:50:17;;;;;;;80.57;8.75;;;;;;;;;;5092801;28;20028;-39
2024/03/03 04:52:44;;;;;;;74.85;8.85;;;;;;;;;;5093020;28;20039;-39
2024/03/03 04:55:11;;;;;;;66.68;8.32;;;;;;;;;;5092933;28;20023;-37
2024/03/03 04:57:38;;;;;;;62.22;8.48;;;;;;;;;;5092961;28;20561;-38
2024/03/03 05:00:08;;;;;;;67.07;8.85;;;;;;;;;;5092814;28;20036;-36
2024/03/03 05:02:38;;;;;;;69.28;8.73;;;;;;;;;;5074540;28;20138;-39
2024/03/03 05:05:06;;;;;;;68.97;8.20;;;;;;;;;;5092728;28;20107;-38
2024/03/03 05:07:36;;;;;;;56.25;8.25;;;;;;;;;;5092497;28;20047;-38
2024/03/03 05:10:03;;;;;;;74.45;9.02;;;;;;;;;;5084280;28;20024;-35
2024/03/03 05:12:30;;;;;;;59.58;7.95;;;;;;;;;;5092646;28;20039;-37
2024/03/03 05:14:57;;;;;;;66.03;8.15;;;;;;;;;;5092505;28;20024;-41
2024/03/03 05:17:24;;;;;;;60.33;7.70;;;;;;;;;;5092492;28;20025;-40
2024/03/03 05:19:51;;;;;;;64.63;7.43;;;;;;;;;;5091872;28;20040;-42
2024/03/03 05:22:18;;;;;;;53.92;8.05;;;;;;;;;;5092205;28;20627;-38
2024/03/03 05:24:45;;;;;;;73.93;8.38;;;;;;;;;;5092413;28;20020;-36
2024/03/03 05:27:12;;;;;;;72.10;9.40;;;;;;;;;;5092086;28;20103;-37
2024/03/03 05:29:39;;;;;;;72.47;8.73;;;;;;;;;;5091665;28;20039;-34
2024/03/03 05:32:06;;;;;;;68.22;8.15;;;;;;;;;;5091966;28;20020;-37
2024/03/03 05:34:33;;;;;;;67.10;8.18;;;;;;;;;;5092149;28;20486;-38
2024/03/03 05:37:00;;;;;;;73.13;9.85;;;;;;;;;;5092064;28;20020;-35
2024/03/03 05:39:27;;;;;;;61.33;7.70;;;;;;;;;;5092043;28;20153;-39
2024/03/03 05:41:54;;;;;;;74.10;7.85;;;;;;;;;;5091853;28;20024;-38
2024/03/03 05:44:21;;;;;;;52.15;7.80;;;;;;;;;;5092064;28;20048;-34
2024/03/03 05:46:48;;;;;;;55.58;7.70;;;;;;;;;;5092073;28;20024;-36
2024/03/03 05:49:15;;;;;;;67.55;8.25;;;;;;;;;;5092042;28;20112;-36
2024/03/03 05:51:42;;;;;;;75.45;8.48;;;;;;;;;;5091814;28;20107;-33
2024/03/03 05:54:09;;;;;;;75.18;9.05;;;;;;;;;;5091659;28;20028;-39
2024/03/03 05:56:36;;;;;;;61.47;8.98;;;;;;;;;;5091912;28;20095;-38
2024/03/03 05:59:03;;;;;;;76.00;8.32;;;;;;;;;;5091871;28;20104;-38
2024/03/03 06:01:30;;;;;;;46.67;6.25;;;;;;;;;;5085235;28;20101;-36
2024/03/03 06:03:57;;;;;;;67.53;8.57;;;;;;;;;;5075928;28;20097;-34
2024/03/03 06:06:24;;;;;;;71.22;9.52;;;;;;;;;;5078025;28;20024;-40
2024/03/03 06:08:51;;;;;;;63.28;8.57;;;;;;;;;;5071600;28;20024;-37
2024/03/03 06:11:18;;;;;;;72.00;9.50;;;;;;;;;;5071337;28;20028;-35
2024/03/03 06:13:45;;;;;;;93.60;10.80;;;;;;;;;;5071458;28;20036;-35
2024/03/03 06:16:12;;;;;;;83.30;9.85;;;;;;;;;;5071351;28;20036;-39
2024/03/03 06:18:39;;;;;;;76.90;9.18;;;;;;;;;;5071552;28;20013;-39
2024/03/03 06:21:07;;;;;;;72.63;8.85;;;;;;;;;;5071275;28;20458;-38
2024/03/03 06:23:36;;;;;;;77.57;10.25;;;;;;;;;;5071327;28;20046;-35
2024/03/03 06:26:02;;;;;;;73.20;9.05;;;;;;;;;;5071356;28;20059;-38
2024/03/03 06:28:29;;;;;;;68.38;9.27;;;;;;;;;;5071491;28;20020;-36
2024/03/03 06:30:56;;;;;;;80.60;10.60;;;;;;;;;;5071108;28;20020;-37
2024/03/03 06:33:25;;;;;;;87.82;10.43;;;;;;;;;;5071339;28;20021;-38
2024/03/03 06:35:52;;;;;;;84.00;11.20;;;;;;;;;;5071257;28;20036;-34
2024/03/03 06:38:19;;;;;;;71.78;10.77;;;;;;;;;;5071210;28;20043;-38
2024/03/03 06:40:47;;;;;;;75.13;10.43;;;;;;;;;;5071324;28;20040;-36
2024/03/03 06:43:14;;;;;;;67.50;9.63;;;;;;;;;;5075133;28;20028;-36
2024/03/03 06:45:41;;;;;;;81.38;9.63;;;;;;;;;;5075135;28;20483;-39
2024/03/03 06:48:08;;;;;;;81.68;10.65;;;;;;;;;;5075257;28;20075;-39
2024/03/03 06:50:35;;;;;;;72.75;10.20;;;;;;;;;;5075012;28;20555;-38
2024/03/03 06:53:02;;;;;;;90.28;11.80;;;;;;;;;;5075110;28;20034;-37
2024/03/03 06:55:29;;;;;;;68.95;9.80;;;;;;;;;;5074882;28;20043;-36
2024/03/03 06:57:56;;;;;;;84.75;12.52;;;;;;;;;;5074894;28;20394;-40
2024/03/03 07:00:23;;;;;;;79.40;11.45;;;;;;;;;;5074716;28;20032;-37
2024/03/03 07:02:57;;;;;;;89.15;11.98;;;;;;;;;;5074744;28;20098;-37
2024/03/03 07:05:24;;;;;;;84.13;11.68;;;;;;;;;;5074695;28;20040;-35
2024/03/03 07:07:51;;;;;;;84.72;12.65;;;;;;;;;;5074689;28;20449;-34
2024/03/03 07:10:18;;;;;;;83.07;11.75;;;;;;;;;;5056586;28;20393;-38
2024/03/03 07:12:45;;;;;;;102.80;13.00;;;;;;;;;;5074726;28;20494;-37
2024/03/03 07:15:12;;;;;;;78.38;11.93;;;;;;;;;;5074617;28;20031;-36
2024/03/03 07:17:39;;;;;;;102.80;13.13;;;;;;;;;;5074414;28;20111;-34
2024/03/03 07:20:06;;;;;;;87.28;12.25;;;;;;;;;;5074364;28;20060;-38
2024/03/03 07:22:34;;;;;;;87.68;11.45;;;;;;;;;;5074273;28;20059;-37
2024/03/03 07:25:05;;;;;;;91.88;13.02;;;;;;;;;;5074260;28;20105;-36
2024/03/03 07:27:32;;;;;;;92.82;13.43;;;;;;;;;;5074305;28;20060;-38
2024/03/03 07:29:59;;;;;;;97.35;13.70;;;;;;;;;;5074333;28;20103;-35
2024/03/03 07:32:29;;;;;;;93.10;13.43;;;;;;;;;;5074295;28;20386;-36
2024/03/03 07:34:56;;;;;;;102.40;14.70;;;;;;;;;;5074331;28;20028;-39
2024/03/03 07:37:23;;;;;;;86.13;12.25;;;;;;;;;;5074315;28;20111;-39
2024/03/03 07:39:50;;;;;;;80.38;12.70;;;;;;;;;;5074061;28;20464;-38
2024/03/03 07:42:17;;;;;;;91.07;13.07;;;;;;;;;;5074201;28;20108;-36
2024/03/03 07:44:44;;;;;;;94.55;13.13;;;;;;;;;;5074100;28;20056;-40
2024/03/03 07:47:11;;;;;;;86.05;12.95;;;;;;;;;;5074055;28;20031;-37
2024/03/03 07:49:38;;;;;;;68.50;9.85;;;;;;;;;;5073945;28;20805;-39
2024/03/03 07:52:05;;;;;;;66.72;9.65;;;;;;;;;;5073656;28;20074;-39
2024/03/03 07:54:32;;;;;;;64.32;9.20;;;;;;;;;;5073964;28;20494;-40
2024/03/03 07:56:58;;;;;;;59.78;8.98;;;;;;;;;;5073881;28;20021;-38
2024/03/03 07:59:25;;;;;;;50.15;8.13;;;;;;;;;;5073725;28;20498;-40
2024/03/03 08:01:52;;;;;;;54.50;7.47;;;;;;;;;;5073819;28;20029;-38
2024/03/03 08:04:20;;;;;;;46.00;6.65;;;;;;;;;;5073879;28;20028;-38
2024/03/03 08:06:47;;;;;;;45.42;6.10;;;;;;;;;;5073704;28;20103;-39
2024/03/03 08:09:14;;;;;;;53.70;6.85;;;;;;;;;;5073680;28;20512;-40
2024/03/03 08:11:41;;;;;;;35.17;5.85;;;;;;;;;;5073576;28;20075;-36
2024/03/03 08:14:08;;;;;;;42.67;6.50;;;;;;;;;;5073661;28;20139;-33
2024/03/03 08:16:36;;;;;;;32.88;5.68;;;;;;;;;;5073629;28;20024;-35
2024/03/03 08:19:03;;;;;;;37.20;6.05;;;;;;;;;;5073396;28;20075;-34
2024/03/03 08:21:31;;;;;;;39.35;6.28;;;;;;;;;;5073385;28;20483;-34
2024/03/03 08:23:58;;;;;;;49.83;5.78;;;;;;;;;;5073191;28;20128;-34
2024/03/03 08:26:25;;;;;;;40.05;5.85;;;;;;;;;;5073381;28;20509;-39
2024/03/03 08:28:52;;;;;;;40.88;5.28;;;;;;;;;;5073326;28;20070;-34
2024/03/03 08:31:19;;;;;;;37.42;5.75;;;;;;;;;;5073101;28;20464;-34
2024/03/03 08:33:46;;;;;;;30.10;5.30;;;;;;;;;;5073219;28;20238;-34
2024/03/03 08:36:13;;;;;;;34.08;5.32;;;;;;;;;;5073357;28;20390;-35
2024/03/03 08:38:40;;;;;;;39.60;4.80;;;;;;;;;;5073107;28;20033;-37
2024/03/03 08:41:07;;;;;;;35.83;5.57;;;;;;;;;;5072742;28;20141;-36
2024/03/03 08:43:34;;;;;;;38.75;4.88;;;;;;;;;;5073063;28;20138;-40
2024/03/03 08:46:02;;;;;;;38.35;5.45;;;;;;;;;;5072981;28;20024;-36
2024/03/03 08:48:29;;;;;;;36.53;5.45;;;;;;;;;;5072839;28;20040;-36
2024/03/03 08:50:56;;;;;;;34.42;5.28;;;;;;;;;;5072806;28;20036;-37
2024/03/03 08:53:23;;;;;;;31.38;4.80;;;;;;;;;;5072789;28;20017;-36
2024/03/03 08:55:50;;;;;;;26.08;4.93;;;;;;;;;;5072714;28;20036;-37
2024/03/03 08:58:19;;;;;;;36.10;4.68;;;;;;;;;;5072619;28;20037;-34
2024/03/03 09:00:46;;;;;;;29.80;4.80;;;;;;;;;;5072418;28;20127;-37
2024/03/03 09:03:13;;;;;;;35.00;5.63;;;;;;;;;;5072210;28;20067;-36
2024/03/03 09:05:40;;;;;;;35.17;5.00;;;;;;;;;;5072107;28;20537;-36
2024/03/03 09:08:07;;;;;;;35.88;4.63;;;;;;;;;;5072525;28;20064;-36
2024/03/03 09:10:34;;;;;;;37.75;6.07;;;;;;;;;;5072397;28;20067;-35
2024/03/03 09:13:01;;;;;;;35.78;6.00;;;;;;;;;;5054409;28;20079;-36
2024/03/03 09:15:28;;;;;;;39.33;5.88;;;;;;;;;;5072338;28;20390;-35
2024/03/03 09:17:55;;;;;;;35.28;5.43;;;;;;;;;;5054323;28;20028;-38
2024/03/03 09:20:22;;;;;;;32.17;5.20;;;;;;;;;;5072025;28;20024;-36
2024/03/03 09:22:49;;;;;;;42.67;5.22;;;;;;;;;;5072105;28;20049;-36
2024/03/03 09:25:18;;;;;;;34.05;5.72;;;;;;;;;;5072239;28;20036;-39
2024/03/03 09:27:45;;;;;;;40.33;5.82;;;;;;;;;;5072263;28;20031;-39
2024/03/03 09:30:12;;;;;;;31.52;4.63;;;;;;;;;;5072065;28;20040;-38
2024/03/03 09:32:39;;;;;;;41.50;6.05;;;;;;;;;;5072030;28;20073;-39
2024/03/03 09:35:07;;;;;;;43.38;6.40;;;;;;;;;;5072109;28;20035;-40
2024/03/03 09:37:34;;;;;;;42.25;6.03;;;;;;;;;;5072280;28;20039;-35
2024/03/03 09:40:00;;;;;;;37.53;6.03;;;;;;;;;;5071843;28;20116;-36
2024/03/03 09:42:27;;;;;;;33.13;6.35;;;;;;;;;;5071983;28;20137;-39
2024/03/03 09:44:58;;;;;;;35.83;6.45;;;;;;;;;;5071885;28;20490;-35
2024/03/03 09:47:28;;;;;;;39.83;6.57;;;;;;;;;;5071818;28;20029;-37
2024/03/03 09:49:56;;;;;;;35.50;6.32;;;;;;;;;;5071610;28;20413;-38
2024/03/03 09:52:25;;;;;;;41.80;7.05;;;;;;;;;;5071884;28;20441;-37
2024/03/03 09:54:52;;;;;;;46.05;7.25;;;;;;;;;;5071732;28;20027;-39
2024/03/03 09:57:19;;;;;;;48.35;7.70;;;;;;;;;;5071763;28;20021;-33
2024/03/03 09:59:51;;;;;;;44.03;6.70;;;;;;;;;;5071472;28;20779;-36
2024/03/03 10:02:18;;;;;;;44.88;7.63;;;;;;;;;;5071660;28;20052;-37
2024/03/03 10:04:48;;;;;;;47.78;8.32;;;;;;;;;;5071656;28;20090;-36
2024/03/03 10:07:35;;;;;;;44.15;8.65;;;;;;;;;;5090948;28;20028;-35
2024/03/03 10:10:15;;;;;;;57.55;8.95;;;;;;;;;;5091724;28;20504;-34
2024/03/03 10:12:44;;;;;;;39.75;7.28;;;;;;;;;;5091719;28;20111;-38
2024/03/03 10:15:11;;;;;;;40.10;7.57;;;;;;;;;;5091582;28;20024;-38
2024/03/03 10:17:38;;;;;;;57.30;8.70;;;;;;;;;;5091427;28;20059;-38
2024/03/03 10:20:08;;;;;;;50.58;7.63;;;;;;;;;;5091376;28;20118;-35
2024/03/03 10:22:36;;;;;;;48.97;8.50;;;;;;;;;;5091416;28;20044;-38
2024/03/03 10:25:13;;;;;;;48.70;7.43;;;;;;;;;;5091596;28;20077;-34
2024/03/03 10:27:46;;;;;;;46.55;9.07;;;;;;;;;;5091433;28;20089;-34
2024/03/03 10:30:14;;;;;;;49.42;8.20;;;;;;;;;;5091618;28;20039;-38
2024/03/03 10:32:42;;;;;;;52.78;8.40;;;;;;;;;;5091501;28;20132;-37
2024/03/03 10:35:10;;;;;;;46.55;8.35;;;;;;;;;;5091501;28;20028;-34
2024/03/03 10:37:47;;;;;;;55.13;8.77;;;;;;;;;;5091477;28;20053;-39
2024/03/03 10:40:14;;;;;;;54.75;9.50;;;;;;;;;;5091363;28;20124;-40
2024/03/03 10:42:41;;;;;;;56.30;8.10;;;;;;;;;;5091394;28;20077;-36
2024/03/03 10:45:09;;;;;;;52.33;8.25;;;;;;;;;;5091418;28;20036;-37
2024/03/03 10:47:36;;;;;;;63.65;9.50;;;;;;;;;;5091372;28;20381;-38
2024/03/03 10:50:08;;;;;;;62.10;9.73;;;;;;;;;;5091275;28;20535;-35
2024/03/03 10:52:41;;;;;;;59.60;8.52;;;;;;;;;;5091178;28;20044;-38
2024/03/03 10:55:09;;;;;;;42.05;7.13;;;;;;;;;;5091315;28;20374;-41
2024/03/03 10:57:39;;;;;;;54.75;8.88;;;;;;;;;;5091286;28;20032;-37
2024/03/03 11:00:14;;;;;;;48.47;8.23;;;;;;;;;;5091010;28;20126;-37
2024/03/03 11:02:44;;;;;;;52.95;8.63;;;;;;;;;;5091074;28;20032;-36
2024/03/03 11:05:17;;;;;;;55.90;8.20;;;;;;;;;;5091119;28;20512;-37
2024/03/03 11:07:44;;;;;;;56.05;8.02;;;;;;;;;;5091294;28;20028;-38
2024/03/03 11:10:11;;;;;;;51.90;8.13;;;;;;;;;;5090957;28;20059;-39
2024/03/03 11:12:42;;;;;;;55.15;8.35;;;;;;;;;;5091147;28;20103;-36
2024/03/03 11:15:12;;;;;;;53.55;9.20;;;;;;;;;;5091149;28;20477;-35
2024/03/03 11:17:44;;;;;;;50.97;8.45;;;;;;;;;;5091036;28;20025;-34
2024/03/03 11:20:20;;;;;;;56.88;8.18;;;;;;;;;;5090999;28;20567;-34
2024/03/03 11:23:04;;;;;;;41.45;8.15;;;;;;;;;;5090687;28;20047;-36
2024/03/03 11:25:36;;;;;;;51.00;8.07;;;;;;;;;;5091119;28;20024;-35
2024/03/03 11:28:03;;;;;;;54.75;7.43;;;;;;;;;;5093146;28;20090;-38
2024/03/03 11:30:31;;;;;;;48.45;8.13;;;;;;;;;;5094702;28;20044;-39
2024/03/03 11:32:58;;;;;;;57.42;7.80;;;;;;;;;;5094677;28;20397;-38
2024/03/03 11:35:25;;;;;;;48.88;7.85;;;;;;;;;;5094668;28;20439;-39
2024/03/03 11:37:52;;;;;;;45.50;7.85;;;;;;;;;;5094671;28;20021;-38
2024/03/03 11:40:19;;;;;;;43.30;6.50;;;;;;;;;;5094349;28;20039;-36
2024/03/03 11:42:46;;;;;;;46.08;7.35;;;;;;;;;;5094391;28;20032;-37
2024/03/03 11:45:13;;;;;;;50.63;7.78;;;;;;;;;;5094383;28;20016;-37
2024/03/03 11:47:49;;;;;;;40.85;7.32;;;;;;;;;;5094416;28;20024;-35
2024/03/03 11:50:24;;;;;;;39.50;6.63;;;;;;;;;;5076099;28;20367;-38
2024/03/03 11:52:52;;;;;;;44.40;7.60;;;;;;;;;;5075922;28;20071;-38
2024/03/03 11:55:31;;;;;;;39.63;7.55;;;;;;;;;;5094153;28;20398;-37
2024/03/03 11:58:01;;;;;;;38.05;7.40;;;;;;;;;;5094174;28;20489;-35
2024/03/03 12:00:28;;;;;;;34.22;6.63;;;;;;;;;;5093749;28;20059;-37
2024/03/03 12:02:56;;;;;;;41.10;6.47;;;;;;;;;;5094011;28;20103;-38
2024/03/03 12:05:23;;;;;;;28.90;5.35;;;;;;;;;;5094125;28;20070;-35
2024/03/03 12:07:54;;;;;;;36.83;6.18;;;;;;;;;;5093778;28;20035;-36
2024/03/03 12:10:25;;;;;;;24.10;4.70;;;;;;;;;;5093899;28;20031;-39
2024/03/03 12:12:53;;;;;;;31.77;4.95;;;;;;;;;;5093299;28;20032;-36
2024/03/03 12:15:21;;;;;;;30.48;4.97;;;;;;;;;;5093655;28;20042;-35
2024/03/03 12:17:50;;;;;;;27.10;4.78;;;;;;;;;;5093637;28;20389;-38
2024/03/03 12:20:21;;;;;;;25.85;4.65;;;;;;;;;;5093503;28;20048;-35
2024/03/03 12:22:49;;;;;;;26.88;4.50;;;;;;;;;;5093577;28;20055;-38
2024/03/03 12:25:17;;;;;;;21.70;4.72;;;;;;;;;;5093487;28;20033;-38
2024/03/03 12:27:53;;;;;;;17.33;4.10;;;;;;;;;;5093637;28;20032;-39
2024/03/03 12:30:32;;;;;;;26.20;3.92;;;;;;;;;;5093517;28;20453;-40
2024/03/03 12:33:03;;;;;;;16.05;3.88;;;;;;;;;;5093337;28;20043;-33
2024/03/03 12:35:30;;;;;;;19.60;3.42;;;;;;;;;;5093399;28;20374;-35
2024/03/03 12:37:58;;;;;;;12.70;3.42;;;;;;;;;;5093374;28;20818;-37
2024/03/03 12:40:25;;;;;;;20.55;3.88;;;;;;;;;;5093177;28;20028;-36
2024/03/03 12:42:52;;;;;;;24.48;4.40;;;;;;;;;;5093239;28;20036;-37
2024/03/03 12:45:19;;;;;;;25.25;4.50;;;;;;;;;;5093237;28;20031;-39
2024/03/03 12:47:46;;;;;;;17.92;3.92;;;;;;;;;;5093053;28;20390;-38
2024/03/03 12:50:14;;;;;;;24.75;4.05;;;;;;;;;;5092846;28;20035;-39
2024/03/03 12:52:41;;;;;;;27.17;4.43;;;;;;;;;;5092956;28;20489;-35
2024/03/03 12:55:09;;;;;;;35.83;5.25;;;;;;;;;;5092909;28;20032;-37
2024/03/03 12:57:41;;;;;;;23.05;4.57;;;;;;;;;;5090925;28;20038;-35
2024/03/03 13:00:12;;;;;;;35.30;4.20;;;;;;;;;;5084882;28;20306;-40
2024/03/03 13:02:40;;;;;;;25.63;4.47;;;;;;;;;;5092262;28;20032;-38
2024/03/03 13:05:09;;;;;;;24.42;4.55;;;;;;;;;;5092167;28;20382;-35
2024/03/03 13:07:35;;;;;;;30.20;4.35;;;;;;;;;;5092281;28;20020;-38
2024/03/03 13:10:21;;;;;;;32.78;6.00;;;;;;;;;;5091615;28;20587;-32
2024/03/03 13:12:51;;;;;;;25.67;5.43;;;;;;;;;;5092672;28;20032;-35
2024/03/03 13:15:19;;;;;;;40.28;5.35;;;;;;;;;;5092005;28;20107;-38
2024/03/03 13:18:10;;;;;;;28.88;5.07;;;;;;;;;;5092227;28;20054;-39
2024/03/03 13:20:36;;;;;;;20.40;3.75;;;;;;;;;;5077834;28;20055;-33
2024/03/03 13:23:13;;;;;;;19.13;3.80;;;;;;;;;;5092305;28;20574;-34
2024/03/03 13:25:41;;;;;;;32.75;4.40;;;;;;;;;;5092164;28;20482;-35
2024/03/03 13:28:13;;;;;;;23.25;3.90;;;;;;;;;;5091581;28;20119;-33
2024/03/03 13:30:40;;;;;;;18.20;3.05;;;;;;;;;;5084273;28;20035;-36
2024/03/03 13:33:07;;;;;;;13.52;2.90;;;;;;;;;;5092201;28;20053;-37
2024/03/03 13:35:34;;;;;;;18.42;2.80;;;;;;;;;;5092131;28;20031;-37
2024/03/03 13:38:01;;;;;;;15.52;2.80;;;;;;;;;;5092178;28;20065;-35
2024/03/03 13:40:28;;;;;;;17.48;3.35;;;;;;;;;;5091938;28;20040;-32
2024/03/03 13:42:55;;;;;;;14.13;3.35;;;;;;;;;;5088161;28;20055;-36
2024/03/03 13:45:22;;;;;;;13.50;2.53;;;;;;;;;;5088793;28;20482;-33
2024/03/03 13:47:49;;;;;;;20.65;3.22;;;;;;;;;;5091991;28;20505;-34
2024/03/03 13:50:16;;;;;;;15.27;2.78;;;;;;;;;;5091311;28;20107;-35
2024/03/03 13:52:43;;;;;;;35.10;4.22;;;;;;;;;;5091796;28;20035;-36
2024/03/03 13:55:10;;;;;;;32.78;4.85;;;;;;;;;;5092023;28;20032;-36
2024/03/03 13:57:37;;;;;;;39.30;4.88;;;;;;;;;;5091010;28;20430;-36
2024/03/03 14:00:09;;;;;;;35.22;3.67;;;;;;;;;;5087019;28;20032;-37
2024/03/03 14:02:36;;;;;;;48.25;5.05;;;;;;;;;;5069396;28;20538;-38
2024/03/03 14:05:03;;;;;;;70.50;6.43;;;;;;;;;;5090072;28;20036;-34
2024/03/03 14:07:30;;;;;;;68.85;5.70;;;;;;;;;;5090607;28;20031;-32
2024/03/03 14:09:57;;;;;;;61.08;5.72;;;;;;;;;;5089613;28;20016;-36
2024/03/03 14:12:24;;;;;;;30.52;4.15;;;;;;;;;;5090377;28;20688;-35
2024/03/03 14:14:54;;;;;;;30.17;3.33;;;;;;;;;;5088161;28;20024;-34
2024/03/03 14:17:21;;;;;;;22.48;3.47;;;;;;;;;;5090113;28;20046;-37
2024/03/03 14:19:48;;;;;;;27.30;3.28;;;;;;;;;;5089319;28;20068;-34
2024/03/03 14:22:18;;;;;;;34.63;3.75;;;;;;;;;;5071804;28;20044;-35
2024/03/03 14:24:45;;;;;;;29.00;4.32;;;;;;;;;;5090674;28;20381;-36
2024/03/03 14:27:12;;;;;;;28.02;3.38;;;;;;;;;;5091449;28;20016;-34
2024/03/03 14:29:40;;;;;;;18.42;3.30;;;;;;;;;;5091235;28;20060;-37
2024/03/03 14:32:07;;;;;;;19.50;2.95;;;;;;;;;;5091354;28;20486;-35